createdAt,value
2023-03-06T01:12:30.889Z,0.57
2023-03-06T01:13:30.875Z,0.59
2023-03-06T01:14:30.872Z,0.61
2023-03-06T01:15:30.863Z,0.63
2023-03-06T01:16:30.905Z,0.59
2023-03-06T01:17:30.862Z,0.57
2023-03-06T01:18:30.865Z,0.57
2023-03-06T01:19:30.857Z,0.58
2023-03-06T01:20:30.864Z,0.60
2023-03-06T01:21:30.860Z,0.62
2023-03-06T01:22:30.861Z,0.60
2023-03-06T01:23:30.858Z,0.58
2023-03-06T01:24:30.866Z,0.57
2023-03-06T01:25:30.860Z,0.58
2023-03-06T01:26:30.866Z,0.61
2023-03-06T01:27:30.865Z,0.63
2023-03-06T01:28:30.839Z,0.60
2023-03-06T01:29:30.836Z,0.58
2023-03-06T01:30:30.825Z,0.56
2023-03-06T01:31:31.197Z,0.59
2023-03-06T01:32:30.913Z,0.59
2023-03-06T01:33:30.818Z,0.59
2023-03-06T01:34:30.820Z,0.59
2023-03-06T01:35:30.848Z,0.57
2023-03-06T01:36:30.814Z,0.56
2023-03-06T01:37:30.813Z,0.60
2023-03-06T01:38:30.824Z,0.59
2023-03-06T01:39:30.820Z,0.62
2023-03-06T01:40:30.812Z,0.62
2023-03-06T01:41:30.839Z,0.59
2023-03-06T01:42:32.147Z,0.58
2023-03-06T01:43:30.830Z,0.59
2023-03-06T01:44:30.801Z,0.60
2023-03-06T01:45:30.937Z,0.62
2023-03-06T01:46:30.796Z,0.63
2023-03-06T01:47:30.823Z,0.60
2023-03-06T01:48:30.909Z,0.58
2023-03-06T01:49:30.803Z,0.58
2023-03-06T01:50:30.800Z,0.58
2023-03-06T01:51:30.807Z,0.58
2023-03-06T01:52:30.802Z,0.59
2023-03-06T01:53:30.803Z,0.58
2023-03-06T01:54:30.865Z,0.55
2023-03-06T01:55:30.804Z,0.56
2023-03-06T01:56:30.803Z,0.57
2023-03-06T01:57:30.787Z,0.59
2023-03-06T01:58:30.780Z,0.63
2023-03-06T01:59:30.782Z,0.60
2023-03-06T02:00:30.788Z,0.56
2023-03-06T02:01:30.839Z,0.57
2023-03-06T02:02:30.792Z,0.59
2023-03-06T02:03:30.755Z,0.60
2023-03-06T02:04:30.753Z,0.62
2023-03-06T02:05:30.756Z,0.59
2023-03-06T02:06:30.767Z,0.56
2023-03-06T02:07:30.756Z,0.54
2023-03-06T04:34:30.799Z,0.58
2023-03-06T04:44:30.782Z,0.64
2023-03-06T05:20:30.836Z,0.68
2023-03-06T06:48:31.097Z,1.33
2023-03-06T06:51:31.079Z,1.57
2023-03-06T06:53:31.082Z,1.70
2023-03-06T06:57:31.810Z,2.04
2023-03-06T06:58:30.977Z,2.15
2023-03-06T06:59:30.970Z,2.36
2023-03-06T07:00:30.954Z,2.48
2023-03-06T07:01:31.009Z,2.58
2023-03-06T07:02:30.954Z,2.59
2023-03-06T07:03:30.987Z,2.61
2023-03-06T07:04:30.928Z,2.68
2023-03-06T07:05:31.003Z,2.84
2023-03-06T07:06:30.888Z,3.09
2023-03-06T07:07:30.915Z,3.24
2023-03-06T07:08:30.852Z,3.38
2023-03-06T07:09:30.885Z,3.44
2023-03-06T07:10:30.919Z,3.60
2023-03-06T07:11:30.858Z,3.81
2023-03-06T07:12:30.810Z,3.84
2023-03-06T07:13:30.807Z,3.81
2023-03-06T07:14:30.795Z,3.95
2023-03-06T07:15:30.834Z,3.99
2023-03-06T07:16:30.765Z,4.00
2023-03-06T07:17:30.739Z,4.07
2023-03-06T07:18:30.710Z,4.25
2023-03-06T07:19:30.713Z,4.47
2023-03-06T07:20:30.774Z,5.00
2023-03-06T07:21:30.727Z,5.09
2023-03-06T07:22:38.736Z,5.24
2023-03-06T07:23:31.655Z,5.25
2023-03-06T07:24:30.620Z,5.27
2023-03-06T07:25:30.593Z,5.31
2023-03-06T07:26:34.185Z,5.50
2023-03-06T07:27:30.604Z,5.26
2023-03-06T07:28:37.602Z,5.34
2023-03-06T07:29:31.516Z,5.28
2023-03-06T07:30:30.479Z,5.39
2023-03-06T07:31:30.465Z,5.62
2023-03-06T07:32:30.616Z,5.96
2023-03-06T07:33:30.421Z,6.54
2023-03-06T07:34:30.388Z,6.84
2023-03-06T07:35:30.423Z,6.99
2023-03-06T07:36:30.361Z,7.18
2023-03-06T07:37:30.390Z,7.14
2023-03-06T07:38:30.274Z,7.26
2023-03-06T07:39:30.261Z,7.28
2023-03-06T07:40:30.755Z,7.30
2023-03-06T07:41:30.766Z,7.33
2023-03-06T07:42:30.329Z,7.49
2023-03-06T07:43:30.161Z,7.87
2023-03-06T07:44:30.290Z,7.37
2023-03-06T07:45:30.095Z,7.61
2023-03-06T07:46:30.266Z,7.95
2023-03-06T07:47:30.081Z,8.85
2023-03-06T07:48:30.042Z,9.62
2023-03-06T07:49:30.025Z,9.47
2023-03-06T07:50:29.981Z,9.71
2023-03-06T07:51:29.961Z,9.23
2023-03-06T07:52:29.927Z,8.72
2023-03-06T07:53:29.917Z,8.63
2023-03-06T07:54:29.962Z,8.64
2023-03-06T07:55:29.871Z,8.74
2023-03-06T07:56:29.812Z,8.99
2023-03-06T07:57:29.776Z,8.81
2023-03-06T07:58:29.947Z,8.26
2023-03-06T07:59:29.744Z,8.11
2023-03-06T08:00:30.283Z,8.18
2023-03-06T08:01:29.657Z,9.31
2023-03-06T08:02:29.696Z,9.34
2023-03-06T08:03:29.628Z,8.50
2023-03-06T08:04:30.269Z,8.58
2023-03-06T08:05:29.600Z,8.36
2023-03-06T08:06:29.554Z,8.79
2023-03-06T08:07:29.541Z,9.56
2023-03-06T08:08:29.455Z,9.54
2023-03-06T08:09:29.431Z,8.89
2023-03-06T08:10:29.401Z,7.84
2023-03-06T08:11:29.344Z,7.99
2023-03-06T08:12:29.372Z,9.00
2023-03-06T08:13:29.312Z,9.30
2023-03-06T08:14:29.432Z,8.95
2023-03-06T08:15:29.243Z,8.04
2023-03-06T08:16:29.241Z,7.65
2023-03-06T08:17:29.159Z,7.42
2023-03-06T08:18:29.173Z,8.41
2023-03-06T08:19:29.101Z,9.01
2023-03-06T08:20:29.069Z,8.41
2023-03-06T08:21:29.061Z,7.91
2023-03-06T08:22:29.025Z,7.65
2023-03-06T08:23:29.040Z,7.66
2023-03-06T08:24:28.973Z,7.81
2023-03-06T08:25:28.952Z,8.04
2023-03-06T08:26:28.903Z,8.29
2023-03-06T08:27:28.896Z,7.89
2023-03-06T08:28:28.845Z,7.23
2023-03-06T08:29:29.292Z,7.66
2023-03-06T08:30:28.782Z,8.56
2023-03-06T08:31:28.864Z,8.96
2023-03-06T08:32:28.728Z,8.38
2023-03-06T08:33:28.698Z,7.50
2023-03-06T08:34:28.679Z,7.30
2023-03-06T08:35:28.646Z,7.33
2023-03-06T08:36:28.578Z,7.54
2023-03-06T08:37:28.613Z,7.72
2023-03-06T08:38:28.546Z,7.33
2023-03-06T08:39:28.623Z,7.41
2023-03-06T08:40:28.483Z,7.54
2023-03-06T08:41:28.466Z,8.06
2023-03-06T08:42:28.485Z,9.26
2023-03-06T08:43:28.381Z,9.16
2023-03-06T08:44:28.330Z,8.41
2023-03-06T08:45:28.297Z,7.67
2023-03-06T08:46:28.798Z,7.10
2023-03-06T08:47:28.216Z,7.93
2023-03-06T08:48:28.205Z,8.65
2023-03-06T08:49:28.209Z,8.55
2023-03-06T08:50:28.119Z,8.29
2023-03-06T08:51:28.157Z,7.20
2023-03-06T08:52:28.092Z,6.74
2023-03-06T08:53:42.122Z,7.78
2023-03-06T08:54:29.054Z,8.55
2023-03-06T08:55:28.008Z,8.54
2023-03-06T08:56:27.955Z,7.67
2023-03-06T08:57:27.924Z,6.77
2023-03-06T08:58:27.864Z,6.58
2023-03-06T08:59:27.874Z,7.48
2023-03-06T09:00:27.882Z,8.01
2023-03-06T09:01:27.842Z,7.61
2023-03-06T09:02:27.883Z,7.06
2023-03-06T09:03:27.745Z,6.73
2023-03-06T09:04:27.716Z,6.47
2023-03-06T09:05:27.640Z,7.58
2023-03-06T09:06:27.604Z,7.98
2023-03-06T09:07:27.557Z,8.59
2023-03-06T09:08:27.531Z,8.64
2023-03-06T09:09:27.622Z,7.47
2023-03-06T09:10:27.501Z,7.47
2023-03-06T09:11:27.452Z,8.25
2023-03-06T09:12:29.278Z,8.29
2023-03-06T09:13:27.377Z,8.43
2023-03-06T09:14:27.473Z,6.85
2023-03-06T09:15:27.278Z,6.51
2023-03-06T09:16:27.296Z,6.44
2023-03-06T09:17:27.329Z,7.32
2023-03-06T09:18:27.202Z,7.33
2023-03-06T09:19:27.151Z,7.38
2023-03-06T09:20:27.142Z,6.44
2023-03-06T09:21:27.162Z,6.13
2023-03-06T09:22:27.073Z,6.60
2023-03-06T09:23:27.049Z,6.89
2023-03-06T09:24:27.372Z,7.14
2023-03-06T09:25:26.922Z,6.64
2023-03-06T09:26:39.581Z,6.17
2023-03-06T09:27:27.936Z,6.03
2023-03-06T09:28:27.911Z,5.95
2023-03-06T09:29:27.294Z,6.46
2023-03-06T09:30:26.756Z,6.49
2023-03-06T09:31:26.729Z,6.36
2023-03-06T09:32:26.712Z,5.58
2023-03-06T09:33:26.660Z,5.34
2023-03-06T09:34:26.621Z,5.38
2023-03-06T09:35:26.612Z,5.93
2023-03-06T09:36:26.562Z,5.83
2023-03-06T09:37:26.619Z,5.30
2023-03-06T09:38:26.510Z,4.92
2023-03-06T09:39:26.487Z,4.51
2023-03-06T09:40:26.403Z,4.72
2023-03-06T09:41:26.407Z,5.13
2023-03-06T10:06:25.606Z,2.57
2023-03-06T10:07:25.572Z,2.44
2023-03-06T10:08:25.626Z,2.10
2023-03-06T10:09:25.606Z,2.15
2023-03-06T10:10:25.525Z,2.42
2023-03-06T10:11:25.485Z,2.39
2023-03-06T10:12:25.451Z,2.25
2023-03-06T10:13:25.424Z,2.11
2023-03-06T10:14:25.447Z,1.90
2023-03-06T10:15:25.444Z,2.02
2023-03-06T10:16:25.363Z,2.23
2023-03-06T10:17:25.353Z,2.05
2023-03-06T10:18:25.301Z,1.93
2023-03-06T10:19:25.254Z,1.91
2023-03-06T10:20:25.226Z,1.74
2023-03-06T10:21:25.264Z,1.88
2023-03-06T10:22:25.237Z,1.98
2023-03-06T10:23:25.170Z,1.81
2023-03-06T10:24:25.133Z,1.76
2023-03-06T10:25:25.138Z,1.60
2023-03-06T10:26:25.131Z,1.61
2023-03-06T10:27:25.068Z,1.63
2023-03-06T10:28:25.036Z,1.65
2023-03-06T10:29:25.016Z,1.66
2023-03-06T10:30:24.968Z,1.65
2023-03-06T10:31:25.014Z,1.67
2023-03-06T10:32:24.940Z,1.70
2023-03-06T10:33:24.877Z,1.71
2023-03-06T10:34:24.860Z,1.68
2023-03-06T10:35:24.893Z,1.57
2023-03-06T10:36:24.840Z,1.47
2023-03-06T10:37:24.784Z,1.55
2023-03-06T10:38:24.751Z,1.67
2023-03-06T10:39:24.712Z,1.70
2023-03-06T10:40:24.719Z,1.65
2023-03-06T10:41:24.770Z,1.55
2023-03-06T10:42:24.634Z,1.45
2023-03-06T10:43:24.660Z,1.58
2023-03-06T10:44:24.590Z,1.66
2023-03-06T10:45:24.533Z,1.67
2023-03-06T10:46:24.564Z,1.64
2023-03-06T10:47:24.484Z,1.70
2023-03-06T10:48:24.521Z,1.74
2023-03-06T10:49:24.395Z,1.84
2023-03-06T10:50:24.532Z,1.85
2023-03-06T10:51:24.350Z,1.88
2023-03-06T10:52:24.295Z,1.87
2023-03-06T10:53:24.266Z,1.83
2023-03-06T10:54:24.247Z,1.99
2023-03-06T10:55:24.157Z,2.18
2023-03-06T10:56:24.134Z,2.23
2023-03-06T10:57:24.097Z,1.94
2023-03-06T10:58:24.020Z,2.01
2023-03-06T10:59:23.986Z,2.17
2023-03-06T11:00:23.930Z,2.39
2023-03-06T11:01:23.927Z,2.50
2023-03-06T11:02:23.878Z,2.37
2023-03-06T11:03:23.799Z,2.40
2023-03-06T11:04:23.830Z,2.54
2023-03-06T11:05:23.737Z,2.61
2023-03-06T11:06:23.708Z,2.76
2023-03-06T11:07:23.600Z,2.76
2023-03-06T11:08:23.564Z,2.78
2023-03-06T11:09:23.503Z,2.85
2023-03-06T11:10:23.644Z,2.85
2023-03-06T11:11:36.690Z,2.97
2023-03-06T11:12:24.362Z,2.93
2023-03-06T11:13:23.882Z,2.96
2023-03-06T11:14:23.293Z,2.94
2023-03-06T11:15:23.208Z,2.89
2023-03-06T11:16:25.803Z,2.79
2023-03-06T11:17:23.191Z,2.90
2023-03-06T11:18:23.116Z,2.84
2023-03-06T11:19:23.009Z,2.85
2023-03-06T11:20:22.992Z,2.84
2023-03-06T11:21:22.919Z,2.71
2023-03-06T11:22:22.871Z,2.56
2023-03-06T11:23:22.816Z,2.59
2023-03-06T11:24:22.735Z,2.47
2023-03-06T11:25:22.670Z,2.58
2023-03-06T11:26:22.648Z,2.54
2023-03-06T11:27:22.550Z,2.64
2023-03-06T11:28:22.510Z,2.62
2023-03-06T11:29:22.480Z,2.60
2023-03-06T11:30:22.381Z,2.68
2023-03-06T11:31:22.407Z,2.79
2023-03-06T11:32:22.290Z,2.87
2023-03-06T11:33:22.319Z,2.76
2023-03-06T11:34:22.186Z,2.76
2023-03-06T11:35:22.098Z,2.88
2023-03-06T11:36:22.066Z,2.81
2023-03-06T11:37:22.003Z,2.67
2023-03-06T11:38:21.945Z,2.47
2023-03-06T11:39:21.865Z,2.66
2023-03-06T11:40:21.825Z,2.68
2023-03-06T11:41:21.881Z,2.62
2023-03-06T11:42:21.676Z,2.56
2023-03-06T11:43:21.609Z,2.51
2023-03-06T11:44:21.575Z,2.43
2023-03-06T11:45:21.522Z,2.42
2023-03-06T11:46:21.531Z,2.37
2023-03-06T11:47:21.441Z,2.38
2023-03-06T11:48:21.343Z,2.39
2023-03-06T11:49:21.283Z,2.58
2023-03-06T11:50:21.214Z,3.13
2023-03-06T11:51:21.172Z,3.14
2023-03-06T11:52:21.117Z,2.84
2023-03-06T11:53:21.084Z,2.77
2023-03-06T11:54:21.015Z,2.76
2023-03-06T11:55:20.972Z,2.80
2023-03-06T11:56:20.914Z,2.56
2023-03-06T11:57:20.869Z,2.42
2023-03-06T11:58:20.780Z,2.41
2023-03-06T11:59:20.749Z,2.33
2023-03-06T12:00:20.672Z,2.56
2023-03-06T12:01:21.361Z,2.44
2023-03-06T12:02:20.578Z,2.43
2023-03-06T12:03:20.619Z,2.40
2023-03-06T12:04:20.450Z,2.35
2023-03-06T12:05:20.518Z,2.25
2023-03-06T12:06:20.624Z,2.33
2023-03-06T12:07:20.403Z,2.32
2023-03-06T12:08:20.248Z,2.28
2023-03-06T12:09:20.272Z,2.23
2023-03-06T12:10:20.183Z,2.27
2023-03-06T12:11:20.677Z,2.14
2023-03-06T12:12:20.052Z,2.20
2023-03-06T12:13:20.010Z,2.25
2023-03-06T12:14:19.924Z,2.22
2023-03-06T16:01:11.039Z,0.95
2023-03-06T16:15:10.621Z,0.72
2023-03-06T16:16:10.591Z,0.75
2023-03-06T16:17:10.561Z,0.82
2023-03-06T16:18:10.526Z,0.80
2023-03-06T16:19:14.000Z,0.78
2023-03-06T16:21:10.462Z,0.73
2023-03-06T16:22:10.439Z,0.80
2023-03-06T16:23:10.445Z,0.81
2023-03-06T16:24:10.365Z,0.79
2023-03-06T16:32:10.208Z,0.76
2023-03-06T16:33:10.142Z,0.80
2023-03-06T16:34:11.119Z,0.78
2023-03-06T16:35:10.112Z,0.73
2023-03-06T16:36:10.112Z,0.72
2023-03-06T16:37:10.071Z,0.73
2023-03-06T16:38:10.051Z,0.76
2023-03-06T16:39:10.020Z,0.82
2023-03-06T16:40:10.008Z,0.75
2023-03-06T16:41:11.123Z,0.70
2023-03-06T16:42:09.986Z,0.68
2023-03-06T16:43:09.961Z,0.72
2023-03-06T16:44:09.973Z,0.78
2023-03-06T16:45:09.924Z,0.74
2023-03-06T22:49:01.241Z,0.68
2023-03-06T22:57:01.063Z,0.67
2023-03-06T22:58:01.093Z,0.69
2023-03-06T22:59:01.044Z,0.69
2023-03-06T23:00:01.023Z,0.68
2023-03-06T23:01:01.032Z,0.67
2023-03-06T23:02:00.974Z,0.68
2023-03-06T23:03:00.963Z,0.68
2023-03-06T23:04:00.973Z,0.67
2023-03-06T23:05:00.946Z,0.66
2023-03-06T23:06:00.896Z,0.67
2023-03-06T23:07:00.879Z,0.66
2023-03-06T23:08:00.865Z,0.67
2023-03-06T23:09:00.868Z,0.67
2023-03-06T23:10:00.803Z,0.64
2023-03-06T23:11:00.796Z,0.65
2023-03-06T23:12:00.755Z,0.66
2023-03-06T23:13:00.749Z,0.65
2023-03-06T23:14:00.738Z,0.65
2023-03-06T23:15:00.771Z,0.67
2023-03-06T23:16:00.705Z,0.66
2023-03-06T23:17:00.641Z,0.65
2023-03-06T23:18:00.626Z,0.66
2023-03-06T23:19:00.604Z,0.67
2023-03-06T23:20:00.582Z,0.67
2023-03-06T23:21:00.557Z,0.65
2023-03-06T23:22:00.560Z,0.66
2023-03-06T23:23:00.529Z,0.65
2023-03-06T23:24:00.502Z,0.65
2023-03-06T23:25:00.500Z,0.65
2023-03-06T23:26:00.457Z,0.64
2023-03-06T23:27:00.438Z,0.65
2023-03-06T23:28:00.432Z,0.64
2023-03-06T23:29:00.403Z,0.65
2023-03-06T23:30:00.386Z,0.65
2023-03-06T23:31:00.407Z,0.65
2023-03-06T23:32:00.366Z,0.65
2023-03-06T23:33:00.335Z,0.65
2023-03-06T23:34:00.298Z,0.64
2023-03-06T23:35:00.284Z,0.63
2023-03-06T23:36:00.389Z,0.64
2023-03-06T23:37:00.241Z,0.64
2023-03-06T23:38:00.224Z,0.66
2023-03-06T23:39:00.204Z,0.65
2023-03-06T23:40:00.210Z,0.65
2023-03-06T23:41:00.170Z,0.66
2023-03-06T23:42:00.147Z,0.67
2023-03-06T23:43:00.134Z,0.63
2023-03-06T23:44:00.118Z,0.64
2023-03-06T23:45:00.110Z,0.65
2023-03-06T23:46:00.101Z,0.64
2023-03-06T23:47:00.063Z,0.65
2023-03-06T23:48:00.083Z,0.65
2023-03-06T23:49:00.024Z,0.63
2023-03-06T23:49:59.983Z,0.64
2023-03-06T23:50:59.956Z,0.65
2023-03-06T23:51:59.947Z,0.65
2023-03-06T23:52:59.939Z,0.65
2023-03-06T23:53:59.932Z,0.64
